createdAt,value
2019-05-21T00:00:27.154Z,24.10
2019-05-21T00:02:57.644Z,25.10
2019-05-21T00:05:28.042Z,26.60
2019-05-21T00:07:58.438Z,28.47
2019-05-21T00:10:28.789Z,26.27
2019-05-21T00:12:59.286Z,24.87
2019-05-21T00:15:29.906Z,25.57
2019-05-21T00:18:00.172Z,26.87
2019-05-21T00:20:31.045Z,25.00
2019-05-21T00:23:01.580Z,25.33
2019-05-21T00:25:32.368Z,25.33
2019-05-21T00:28:41.390Z,26.87
2019-05-21T00:31:47.420Z,25.47
2019-05-21T00:34:53.565Z,24.97
2019-05-21T00:37:59.611Z,30.20
2019-05-21T00:41:05.627Z,27.93
2019-05-21T00:44:04.422Z,28.73
2019-05-21T00:46:34.857Z,28.50
2019-05-21T00:49:05.250Z,27.67
2019-05-21T00:51:35.618Z,25.57
2019-05-21T00:54:06.005Z,26.80
2019-05-21T00:56:36.477Z,29.33
2019-05-21T00:59:06.793Z,23.40
2019-05-21T01:01:37.709Z,27.93
2019-05-21T01:04:08.033Z,24.80
2019-05-21T01:06:38.926Z,27.93
2019-05-21T01:09:09.493Z,24.63
2019-05-21T01:11:39.928Z,28.60
2019-05-21T01:14:11.203Z,29.30
2019-05-21T01:16:41.676Z,30.83
2019-05-21T01:19:12.157Z,30.20
2019-05-21T01:21:42.600Z,28.83
2019-05-21T01:24:12.868Z,32.23
2019-05-21T01:26:43.324Z,28.43
2019-05-21T01:29:13.687Z,28.50
2019-05-21T01:31:44.283Z,28.70
2019-05-21T01:34:14.739Z,26.83
2019-05-21T01:36:45.046Z,27.70
2019-05-21T01:39:15.511Z,32.37
2019-05-21T01:41:45.947Z,31.30
2019-05-21T01:44:16.346Z,29.27
2019-05-21T01:46:46.776Z,32.63
2019-05-21T01:49:18.144Z,32.23
2019-05-21T01:51:48.558Z,34.57
2019-05-21T01:54:18.855Z,31.00
2019-05-21T01:56:49.139Z,27.00
2019-05-21T01:59:19.594Z,28.60
2019-05-21T02:01:49.897Z,34.10
2019-05-21T02:04:20.411Z,28.37
2019-05-21T02:06:51.082Z,35.80
2019-05-21T02:09:22.192Z,32.53
2019-05-21T02:11:52.661Z,32.83
2019-05-21T02:14:23.108Z,28.60
2019-05-21T02:16:53.449Z,30.67
2019-05-21T02:19:23.816Z,33.67
2019-05-21T02:21:55.105Z,30.90
2019-05-21T02:24:25.745Z,33.70
2019-05-21T02:26:56.021Z,29.93
2019-05-21T02:29:26.341Z,30.23
2019-05-21T02:31:56.710Z,30.57
2019-05-21T02:34:27.126Z,32.10
2019-05-21T02:36:58.375Z,30.40
2019-05-21T02:39:28.670Z,31.30
2019-05-21T02:41:59.023Z,32.60
2019-05-21T02:44:29.395Z,30.77
2019-05-21T02:46:59.781Z,32.60
2019-05-21T02:49:32.136Z,32.23
2019-05-21T02:52:02.653Z,35.27
2019-05-21T02:54:41.178Z,38.43
2019-05-21T02:57:07.072Z,36.77
2019-05-21T02:59:37.962Z,38.63
2019-05-21T03:02:18.820Z,37.13
2019-05-21T03:04:49.240Z,37.90
2019-05-21T03:07:19.680Z,40.40
2019-05-21T03:09:50.427Z,39.07
2019-05-21T03:12:21.812Z,43.00
2019-05-21T03:14:52.308Z,43.40
2019-05-21T03:17:22.717Z,42.73
2019-05-21T03:19:53.096Z,43.33
2019-05-21T03:22:23.410Z,46.87
2019-05-21T03:24:53.753Z,41.10
2019-05-21T03:27:24.408Z,46.17
2019-05-21T03:29:54.766Z,43.00
2019-05-21T03:32:25.204Z,44.27
2019-05-21T03:34:55.577Z,42.90
2019-05-21T03:37:25.957Z,45.60
2019-05-21T03:39:56.372Z,41.67
2019-05-21T03:42:26.746Z,42.93
2019-05-21T03:45:00.360Z,40.83
2019-05-21T03:47:30.311Z,41.00
2019-05-21T03:50:00.709Z,42.40
2019-05-21T03:52:31.616Z,42.73
2019-05-21T03:55:03.583Z,40.83
2019-05-21T03:57:34.356Z,37.97
2019-05-21T04:00:06.876Z,38.07
2019-05-21T04:02:37.201Z,32.30
2019-05-21T04:05:07.750Z,38.70
2019-05-21T04:07:38.186Z,36.10
2019-05-21T04:10:14.804Z,35.33
2019-05-21T04:12:48.174Z,37.70
2019-05-21T04:15:20.218Z,35.37
2019-05-21T04:17:59.730Z,40.37
2019-05-21T04:20:30.033Z,34.13
2019-05-21T04:23:00.374Z,35.30
2019-05-21T04:25:31.022Z,33.67
2019-05-21T04:28:01.378Z,39.90
2019-05-21T04:30:32.518Z,34.47
2019-05-21T04:33:03.031Z,33.73
2019-05-21T04:35:34.446Z,32.50
2019-05-21T04:38:04.972Z,33.30
2019-05-21T04:40:35.391Z,34.73
2019-05-21T04:43:06.106Z,35.93
2019-05-21T04:45:37.509Z,33.13
2019-05-21T04:48:07.881Z,36.40
2019-05-21T04:50:38.254Z,36.80
2019-05-21T04:53:08.701Z,37.23
2019-05-21T04:55:38.972Z,36.53
2019-05-21T04:58:09.414Z,41.67
2019-05-21T05:00:39.809Z,34.80
2019-05-21T05:03:10.144Z,38.27
2019-05-21T05:05:40.565Z,34.93
2019-05-21T05:08:11.990Z,36.73
2019-05-21T05:10:42.349Z,34.50
2019-05-21T05:13:12.794Z,29.80
2019-05-21T05:15:43.088Z,34.63
2019-05-21T05:18:14.098Z,31.23
2019-05-21T05:20:44.476Z,32.13
2019-05-21T05:23:14.916Z,36.47
2019-05-21T05:25:45.387Z,26.07
2019-05-21T05:28:15.750Z,28.83
2019-05-21T05:30:46.169Z,30.50
2019-05-21T05:33:16.602Z,25.63
2019-05-21T05:35:47.029Z,28.07
2019-05-21T05:38:17.445Z,25.90
2019-05-21T05:40:47.946Z,27.20
2019-05-21T05:43:20.606Z,23.47
2019-05-21T05:45:50.471Z,23.53
2019-05-21T05:48:21.286Z,20.17
2019-05-21T05:50:53.831Z,19.37
2019-05-21T05:53:24.270Z,17.23
2019-05-21T05:55:54.743Z,20.00
2019-05-21T05:58:25.054Z,20.67
2019-05-21T06:00:55.542Z,23.07
2019-05-21T06:03:26.036Z,20.87
2019-05-21T06:05:56.474Z,25.47
2019-05-21T06:08:26.834Z,26.17
2019-05-21T06:10:57.224Z,26.10
2019-05-21T06:13:27.689Z,29.03
2019-05-21T06:15:58.142Z,25.83
2019-05-21T06:18:28.441Z,26.03
2019-05-21T06:20:59.989Z,28.80
2019-05-21T06:23:31.020Z,26.73
2019-05-21T06:26:02.411Z,27.03
2019-05-21T06:28:33.816Z,31.93
2019-05-21T06:31:06.492Z,28.70
2019-05-21T06:33:36.932Z,29.03
2019-05-21T06:36:07.357Z,30.80
2019-05-21T06:38:37.814Z,26.90
2019-05-21T06:41:08.128Z,29.23
2019-05-21T06:43:38.559Z,30.20
2019-05-21T06:46:08.984Z,28.53
2019-05-21T06:48:39.339Z,28.57
2019-05-21T06:51:09.724Z,27.43
2019-05-21T06:53:40.082Z,28.43
2019-05-21T06:56:10.543Z,28.33
2019-05-21T06:58:41.022Z,28.63
2019-05-21T07:01:11.388Z,30.97
2019-05-21T07:03:41.772Z,34.03
2019-05-21T07:06:12.192Z,31.17
2019-05-21T07:08:42.495Z,31.00
2019-05-21T07:11:12.908Z,29.80
2019-05-21T07:13:43.399Z,29.63
2019-05-21T07:16:13.870Z,28.60
2019-05-21T07:18:44.284Z,30.73
2019-05-21T07:21:15.603Z,31.03
2019-05-21T07:23:46.077Z,30.10
2019-05-21T07:26:16.517Z,28.67
2019-05-21T07:28:47.167Z,29.10
2019-05-21T07:31:17.841Z,25.23
2019-05-21T07:33:48.257Z,27.03
2019-05-21T07:36:18.618Z,30.73
2019-05-21T07:38:54.047Z,29.53
2019-05-21T07:41:21.106Z,27.70
2019-05-21T07:43:51.477Z,25.43
2019-05-21T07:46:22.025Z,29.27
2019-05-21T07:48:52.384Z,25.27
2019-05-21T07:51:22.832Z,26.80
2019-05-21T07:53:53.137Z,25.57
2019-05-21T07:56:23.564Z,25.10
2019-05-21T07:58:53.969Z,27.53
2019-05-21T08:01:24.386Z,24.57
2019-05-21T08:03:54.882Z,26.17
2019-05-21T08:06:25.334Z,23.00
2019-05-21T08:09:11.462Z,22.97
2019-05-21T08:11:27.685Z,23.40
2019-05-21T08:13:58.182Z,24.47
2019-05-21T08:16:28.558Z,24.93
2019-05-21T08:18:58.835Z,25.83
2019-05-21T08:21:29.205Z,23.40
2019-05-21T08:23:59.631Z,25.13
2019-05-21T08:26:30.834Z,22.17
2019-05-21T08:29:02.097Z,25.23
2019-05-21T08:31:32.524Z,22.63
2019-05-21T08:34:03.554Z,24.03
2019-05-21T08:36:33.911Z,23.53
2019-05-21T08:39:05.397Z,21.10
2019-05-21T08:41:35.833Z,22.23
2019-05-21T08:44:06.302Z,21.77
2019-05-21T08:46:36.744Z,22.60
2019-05-21T08:49:07.184Z,21.37
2019-05-21T08:51:37.540Z,22.03
2019-05-21T08:54:07.872Z,25.07
2019-05-21T08:56:38.176Z,21.83
2019-05-21T08:59:08.548Z,24.00
2019-05-21T09:01:38.933Z,20.53
2019-05-21T09:04:09.305Z,22.43
2019-05-21T09:06:39.665Z,21.00
2019-05-21T09:09:10.223Z,22.80
2019-05-21T09:11:40.647Z,20.97
2019-05-21T09:14:11.022Z,22.63
2019-05-21T09:16:42.460Z,25.57
2019-05-21T09:19:12.806Z,23.00
2019-05-21T09:21:43.229Z,21.80
2019-05-21T09:24:13.645Z,22.00
2019-05-21T09:26:44.084Z,22.80
2019-05-21T09:29:14.532Z,21.83
2019-05-21T09:31:44.900Z,23.40
2019-05-21T09:34:15.333Z,25.77
2019-05-21T09:36:45.775Z,25.13
2019-05-21T09:39:16.144Z,24.17
2019-05-21T09:41:46.526Z,23.17
2019-05-21T09:44:16.951Z,23.63
2019-05-21T09:46:47.399Z,19.77
2019-05-21T09:49:17.826Z,19.33
2019-05-21T09:51:48.135Z,21.00
2019-05-21T09:54:18.618Z,25.13
2019-05-21T09:56:49.022Z,19.53
2019-05-21T09:59:33.638Z,21.17
2019-05-21T10:02:09.166Z,19.87
2019-05-21T10:04:39.699Z,20.67
2019-05-21T10:07:10.234Z,19.77
2019-05-21T10:09:40.595Z,22.00
2019-05-21T10:12:11.109Z,20.13
2019-05-21T10:14:41.590Z,21.20
2019-05-21T10:17:11.881Z,19.43
2019-05-21T10:19:42.318Z,20.80
2019-05-21T10:22:12.937Z,18.03
2019-05-21T10:24:43.341Z,22.23
2019-05-21T10:27:13.802Z,21.63
2019-05-21T10:29:44.194Z,19.83
2019-05-21T10:32:14.566Z,21.20
2019-05-21T10:34:44.917Z,20.27
2019-05-21T10:37:15.386Z,19.67
2019-05-21T10:39:45.778Z,20.27
2019-05-21T10:42:16.159Z,19.63
2019-05-21T10:44:46.615Z,23.77
2019-05-21T10:47:17.076Z,20.13
2019-05-21T10:49:48.373Z,20.33
2019-05-21T10:52:18.805Z,23.47
2019-05-21T10:54:49.231Z,21.97
2019-05-21T10:57:19.695Z,20.97
2019-05-21T10:59:50.216Z,21.73
2019-05-21T11:02:45.778Z,22.20
2019-05-21T11:05:24.187Z,19.87
2019-05-21T11:07:54.668Z,21.60
2019-05-21T11:10:25.098Z,20.10
2019-05-21T11:12:55.527Z,21.57
2019-05-21T11:15:25.921Z,16.40
2019-05-21T11:18:09.663Z,17.33
2019-05-21T11:20:28.567Z,20.23
2019-05-21T11:22:58.925Z,21.63
2019-05-21T11:25:29.359Z,23.73
2019-05-21T11:27:59.799Z,18.27
2019-05-21T11:30:30.243Z,19.67
2019-05-21T11:33:00.631Z,19.83
2019-05-21T11:35:31.215Z,21.27
2019-05-21T11:38:03.183Z,21.13
2019-05-21T11:40:33.689Z,17.60
2019-05-21T11:43:05.054Z,20.63
2019-05-21T11:45:35.539Z,21.17
2019-05-21T11:48:06.004Z,17.50
2019-05-21T11:50:36.495Z,23.17
2019-05-21T11:53:06.904Z,17.90
2019-05-21T11:55:37.387Z,18.93
2019-05-21T11:58:07.838Z,17.87
2019-05-21T12:00:38.376Z,17.53
2019-05-21T12:03:08.770Z,17.97
2019-05-21T12:05:39.195Z,19.93
2019-05-21T12:08:09.577Z,19.80
2019-05-21T12:10:40.001Z,17.93
2019-05-21T12:13:10.358Z,18.07
2019-05-21T12:15:40.752Z,18.73
2019-05-21T12:18:12.179Z,18.80
2019-05-21T12:20:42.605Z,15.27
2019-05-21T12:23:13.039Z,15.77
2019-05-21T12:25:43.478Z,16.27
2019-05-21T12:28:13.980Z,15.33
2019-05-21T12:30:44.569Z,18.07
2019-05-21T12:33:14.876Z,18.87
2019-05-21T12:35:45.368Z,16.63
2019-05-21T12:38:16.423Z,16.80
2019-05-21T12:40:46.826Z,14.97
2019-05-21T12:43:17.267Z,21.43
2019-05-21T12:45:47.693Z,17.97
2019-05-21T12:48:18.167Z,19.70
2019-05-21T12:50:48.515Z,19.03
2019-05-21T12:53:18.847Z,17.90
2019-05-21T12:55:49.235Z,19.10
2019-05-21T12:58:19.616Z,17.30
2019-05-21T13:00:50.084Z,14.97
2019-05-21T13:03:20.472Z,15.63
2019-05-21T13:05:50.987Z,15.37
2019-05-21T13:08:21.456Z,16.33
2019-05-21T13:10:51.914Z,14.80
2019-05-21T13:13:22.339Z,13.30
2019-05-21T13:15:52.713Z,13.73
2019-05-21T13:18:23.058Z,12.67
2019-05-21T13:20:53.490Z,14.50
2019-05-21T13:23:24.035Z,13.73
2019-05-21T13:25:54.585Z,13.70
2019-05-21T13:28:25.049Z,15.07
2019-05-21T13:30:55.466Z,16.57
2019-05-21T13:33:25.881Z,15.53
2019-05-21T13:35:56.321Z,14.77
2019-05-21T13:38:26.862Z,15.87
2019-05-21T13:40:59.270Z,15.33
2019-05-21T13:43:29.767Z,15.40
2019-05-21T13:46:00.230Z,15.40
2019-05-21T13:48:31.954Z,15.93
2019-05-21T13:51:02.389Z,16.63
2019-05-21T13:53:32.777Z,18.03
2019-05-21T13:56:03.168Z,17.00
2019-05-21T13:58:33.616Z,19.80
2019-05-21T14:01:06.069Z,17.80
2019-05-21T14:03:36.506Z,17.60
2019-05-21T14:06:06.912Z,18.20
2019-05-21T14:08:37.376Z,17.07
2019-05-21T14:11:07.729Z,19.67
2019-05-21T14:13:38.159Z,17.67
2019-05-21T14:16:08.498Z,19.37
2019-05-21T14:18:39.008Z,19.60
2019-05-21T14:21:09.570Z,16.90
2019-05-21T14:23:40.564Z,17.40
2019-05-21T14:26:11.084Z,19.57
2019-05-21T14:28:41.481Z,18.87
2019-05-21T14:31:11.909Z,18.03
2019-05-21T14:33:46.539Z,19.30
2019-05-21T14:36:14.511Z,17.77
2019-05-21T14:38:44.945Z,18.20
2019-05-21T14:41:15.363Z,18.40
2019-05-21T14:43:45.829Z,19.40
2019-05-21T14:46:16.408Z,17.77
2019-05-21T14:48:46.920Z,16.17
2019-05-21T14:51:17.301Z,16.80
2019-05-21T14:53:47.803Z,17.10
2019-05-21T14:56:18.248Z,15.60
2019-05-21T14:58:48.684Z,16.60
2019-05-21T15:01:19.135Z,15.70
2019-05-21T15:03:49.556Z,16.43
2019-05-21T15:06:20.107Z,19.63
2019-05-21T15:08:50.488Z,17.63
2019-05-21T15:11:20.847Z,20.27
2019-05-21T15:13:51.196Z,18.23
2019-05-21T15:16:21.583Z,18.43
2019-05-21T15:18:52.023Z,20.43
2019-05-21T15:21:36.213Z,22.73
2019-05-21T15:24:06.795Z,19.53
2019-05-21T15:26:37.475Z,21.07
2019-05-21T15:29:07.917Z,20.07
2019-05-21T15:31:38.282Z,19.87
2019-05-21T15:34:08.710Z,18.57
2019-05-21T15:36:39.101Z,20.60
2019-05-21T15:39:09.651Z,20.60
2019-05-21T15:41:40.086Z,19.63
2019-05-21T15:44:10.531Z,18.77
2019-05-21T15:46:49.878Z,18.50
2019-05-21T15:49:13.910Z,20.47
2019-05-21T15:51:44.295Z,18.87
2019-05-21T15:54:14.755Z,21.00
2019-05-21T15:56:45.147Z,19.10
2019-05-21T15:59:15.616Z,17.80
2019-05-21T16:01:46.176Z,18.63
2019-05-21T16:04:17.098Z,18.20
2019-05-21T16:06:47.672Z,17.90
2019-05-21T16:09:18.030Z,18.50
2019-05-21T16:11:48.482Z,21.03
2019-05-21T16:14:18.824Z,19.70
2019-05-21T16:16:49.267Z,19.10
2019-05-21T16:19:19.679Z,18.23
2019-05-21T16:21:50.149Z,16.40
2019-05-21T16:24:21.474Z,21.53
2019-05-21T16:26:51.818Z,16.93
2019-05-21T16:29:22.280Z,13.37
2019-05-21T16:31:52.772Z,14.67
2019-05-21T16:34:23.373Z,15.23
2019-05-21T16:36:54.036Z,18.67
2019-05-21T16:39:25.349Z,14.10
2019-05-21T16:41:55.864Z,16.87
2019-05-21T16:44:26.175Z,17.03
2019-05-21T16:46:56.614Z,18.93
2019-05-21T16:49:27.051Z,20.90
2019-05-21T16:51:57.454Z,19.53
2019-05-21T16:54:27.923Z,18.33
2019-05-21T16:56:58.258Z,18.97
2019-05-21T16:59:28.734Z,20.40
2019-05-21T17:01:59.643Z,19.43
2019-05-21T17:04:30.003Z,22.57
2019-05-21T17:07:00.354Z,19.33
2019-05-21T17:09:38.010Z,19.63
2019-05-21T17:12:09.692Z,21.40
2019-05-21T17:14:40.136Z,19.63
2019-05-21T17:17:10.560Z,18.77
2019-05-21T17:19:40.961Z,18.50
2019-05-21T17:22:12.488Z,21.87
2019-05-21T17:24:42.924Z,18.60
2019-05-21T17:27:13.428Z,20.63
2019-05-21T17:29:43.880Z,18.77
2019-05-21T17:32:14.246Z,24.17
2019-05-21T17:34:44.657Z,21.70
2019-05-21T17:37:15.002Z,19.77
2019-05-21T17:39:45.414Z,18.20
2019-05-21T17:42:16.085Z,18.93
2019-05-21T17:44:46.562Z,19.90
2019-05-21T17:47:17.002Z,18.63
2019-05-21T17:49:47.433Z,18.87
2019-05-21T17:52:17.934Z,18.57
2019-05-21T17:54:56.941Z,17.17
2019-05-21T17:57:22.911Z,20.57
2019-05-21T17:59:53.363Z,22.40
2019-05-21T18:02:24.100Z,20.57
2019-05-21T18:04:54.448Z,19.57
2019-05-21T18:07:25.067Z,21.03
2019-05-21T18:09:55.985Z,21.63
2019-05-21T18:12:32.000Z,23.13
2019-05-21T18:14:58.679Z,18.73
2019-05-21T18:17:30.812Z,23.73
2019-05-21T18:20:01.515Z,20.20
2019-05-21T18:22:33.058Z,24.27
2019-05-21T18:25:03.744Z,20.47
2019-05-21T18:27:35.207Z,19.37
2019-05-21T18:30:08.579Z,17.93
2019-05-21T18:32:39.333Z,18.23
2019-05-21T18:35:10.067Z,19.50
2019-05-21T18:37:40.655Z,19.70
2019-05-21T18:40:11.501Z,17.90
2019-05-21T18:42:41.976Z,17.87
2019-05-21T18:45:12.414Z,20.83
2019-05-21T18:47:42.931Z,21.63
2019-05-21T18:50:13.578Z,17.67
2019-05-21T18:52:44.067Z,18.13
2019-05-21T18:55:14.600Z,18.60
2019-05-21T18:57:45.023Z,18.70
2019-05-21T19:00:15.738Z,19.43
2019-05-21T19:02:46.290Z,18.47
2019-05-21T19:05:16.939Z,16.80
2019-05-21T19:07:47.426Z,19.83
2019-05-21T19:10:18.162Z,16.40
2019-05-21T19:12:48.650Z,18.10
2019-05-21T19:15:19.146Z,19.67
2019-05-21T19:17:49.491Z,17.87
2019-05-21T19:20:20.048Z,20.03
2019-05-21T19:22:50.482Z,24.37
2019-05-21T19:25:20.916Z,22.40
2019-05-21T19:27:51.292Z,24.53
2019-05-21T19:30:21.910Z,25.87
2019-05-21T19:32:52.296Z,19.57
2019-05-21T19:35:22.704Z,21.47
2019-05-21T19:37:53.124Z,22.43
2019-05-21T19:40:23.471Z,19.47
2019-05-21T19:42:55.581Z,18.67
2019-05-21T19:45:26.259Z,20.90
2019-05-21T19:47:56.665Z,23.40
2019-05-21T19:50:27.099Z,21.47
2019-05-21T19:52:57.468Z,18.03
2019-05-21T19:55:28.696Z,23.77
2019-05-21T19:57:59.020Z,22.93
2019-05-21T20:00:31.117Z,22.90
2019-05-21T20:03:02.306Z,22.93
2019-05-21T20:05:32.706Z,24.73
2019-05-21T20:08:03.917Z,22.17
2019-05-21T20:10:34.450Z,25.53
2019-05-21T20:13:05.282Z,25.10
2019-05-21T20:15:35.905Z,28.30
2019-05-21T20:18:07.672Z,26.97
2019-05-21T20:20:40.358Z,25.87
2019-05-21T20:23:12.190Z,24.53
2019-05-21T20:25:55.533Z,29.50
2019-05-21T20:28:14.789Z,27.17
2019-05-21T20:30:45.182Z,31.20
2019-05-21T20:33:17.294Z,26.87
2019-05-21T20:35:49.476Z,28.33
2019-05-21T20:38:20.017Z,26.53
2019-05-21T20:40:50.583Z,27.20
2019-05-21T20:43:20.991Z,29.03
2019-05-21T20:45:51.659Z,29.33
2019-05-21T20:48:25.989Z,29.20
2019-05-21T20:50:56.625Z,25.73
2019-05-21T20:53:27.094Z,29.10
2019-05-21T20:55:57.703Z,27.93
2019-05-21T20:58:28.211Z,29.80
2019-05-21T21:01:00.676Z,25.83
2019-05-21T21:03:31.471Z,29.57
2019-05-21T21:06:04.100Z,33.37
2019-05-21T21:08:36.369Z,27.90
2019-05-21T21:11:08.921Z,27.40
2019-05-21T21:13:40.392Z,31.73
2019-05-21T21:16:11.237Z,32.23
2019-05-21T21:18:42.718Z,29.50
2019-05-21T21:21:13.240Z,31.30
2019-05-21T21:23:45.206Z,29.87
2019-05-21T21:26:15.855Z,34.40
2019-05-21T21:28:46.302Z,32.43
2019-05-21T21:31:16.779Z,32.17
2019-05-21T21:33:47.158Z,31.50
2019-05-21T21:36:17.519Z,32.47
2019-05-21T21:38:48.690Z,33.83
2019-05-21T21:41:20.603Z,35.40
2019-05-21T21:43:51.023Z,33.67
2019-05-21T21:46:21.477Z,35.00
2019-05-21T21:48:52.173Z,32.73
2019-05-21T21:51:22.857Z,33.23
2019-05-21T21:53:53.358Z,36.30
2019-05-21T21:56:23.720Z,32.73
2019-05-21T21:58:54.067Z,31.40
2019-05-21T22:01:41.507Z,32.77
2019-05-21T22:04:15.407Z,33.07
2019-05-21T22:06:46.821Z,35.00
2019-05-21T22:09:30.986Z,39.70
2019-05-21T22:12:03.349Z,33.23
2019-05-21T22:14:49.214Z,33.83
2019-05-21T22:17:09.029Z,35.60
2019-05-21T22:19:40.791Z,34.43
2019-05-21T22:22:12.313Z,34.37
2019-05-21T22:24:42.676Z,32.73
2019-05-21T22:27:13.130Z,35.13
2019-05-21T22:29:43.540Z,33.07
2019-05-21T22:32:16.645Z,36.67
2019-05-21T22:34:46.143Z,38.50
2019-05-21T22:37:21.126Z,38.60
2019-05-21T22:39:52.183Z,36.13
2019-05-21T22:42:23.311Z,39.37
2019-05-21T22:45:07.450Z,38.70
2019-05-21T22:47:27.641Z,36.47
2019-05-21T22:49:58.918Z,36.77
2019-05-21T22:52:29.290Z,38.17
2019-05-21T22:55:02.874Z,40.27
2019-05-21T22:57:33.213Z,39.70
2019-05-21T23:00:07.176Z,37.57
2019-05-21T23:02:38.821Z,40.97
2019-05-21T23:05:10.133Z,42.97
2019-05-21T23:07:42.131Z,34.67
2019-05-21T23:10:13.972Z,41.03
2019-05-21T23:12:44.706Z,36.43
2019-05-21T23:15:24.274Z,42.87
2019-05-21T23:17:49.414Z,40.60
2019-05-21T23:20:37.943Z,40.43
2019-05-21T23:23:08.444Z,38.37
2019-05-21T23:25:41.066Z,41.50
2019-05-21T23:28:11.632Z,42.07
2019-05-21T23:30:42.573Z,38.43
2019-05-21T23:33:14.228Z,35.10
2019-05-21T23:35:44.656Z,35.80
2019-05-21T23:38:16.328Z,34.23
2019-05-21T23:40:48.513Z,32.23
2019-05-21T23:43:19.132Z,36.77
2019-05-21T23:45:49.562Z,36.50
2019-05-21T23:48:20.629Z,34.20
2019-05-21T23:50:50.965Z,39.90
2019-05-21T23:53:22.461Z,34.77
2019-05-21T23:55:53.146Z,35.17
2019-05-21T23:58:23.505Z,38.73
